Terminal Aerodrome Forecast
Issued by NWS

Home | Current Version | Previous Version | Text Only | Print | Product List | Glossary On
Versions: 1 2 3 4 5 6 7 8 9 10 11 12 13 14 15 16 17 18 19 20
000
FTUS44 KLZK 260200 AAA
TAFADF
TAF AMD
KADF 260222Z 2602/2624 07008KT 3SM -RA BR VCTS SCT002 OVC045CB
      TEMPO 2602/2604 VRB20G45KT 2SM TSRA BR BKN002CB
     FM260400 15010KT 5SM SHRA BR OVC025
     FM260800 18009KT 5SM BR OVC015
     FM261400 20008KT P6SM BKN025
     FM261800 24007KT P6SM SCT250=

USA.gov is the U.S. government's official web portal to all federal, state and local government web resources and services.